createdAt,value
2022-11-28T00:01:47.048Z,4.10
2022-11-28T00:06:50.868Z,3.58
2022-11-28T00:11:54.611Z,3.13
2022-11-28T00:16:59.853Z,3.47
2022-11-28T00:22:03.815Z,3.13
2022-11-28T00:27:07.752Z,3.25
2022-11-28T00:32:14.762Z,2.88
2022-11-28T00:37:18.421Z,3.17
2022-11-28T00:42:22.432Z,2.95
2022-11-28T00:47:27.435Z,2.67
2022-11-28T00:52:33.235Z,2.88
2022-11-28T00:57:37.034Z,2.40
2022-11-28T01:02:42.179Z,2.67
2022-11-28T01:07:46.008Z,2.22
2022-11-28T01:12:49.722Z,2.55
2022-11-28T01:17:54.715Z,2.80
2022-11-28T01:22:58.381Z,2.25
2022-11-28T01:28:02.052Z,2.10
2022-11-28T01:33:07.219Z,2.65
2022-11-28T01:38:10.858Z,2.70
2022-11-28T01:43:14.523Z,2.60
2022-11-28T01:48:24.421Z,2.70
2022-11-28T01:53:29.693Z,2.40
2022-11-28T01:58:35.419Z,2.63
2022-11-28T02:03:45.243Z,2.28
2022-11-28T02:08:52.482Z,2.63
2022-11-28T02:19:37.848Z,2.90
2022-11-28T02:24:56.928Z,2.42
2022-11-28T02:30:11.639Z,3.08
2022-11-28T02:35:22.694Z,2.67
2022-11-28T02:40:30.452Z,2.95
2022-11-28T02:45:42.829Z,2.63
2022-11-28T02:50:54.426Z,2.65
2022-11-28T02:56:00.112Z,2.55
2022-11-28T03:01:04.558Z,2.38
2022-11-28T03:06:17.825Z,2.72
2022-11-28T03:11:30.002Z,2.67
2022-11-28T03:16:41.513Z,2.78
2022-11-28T03:21:52.396Z,2.70
2022-11-28T03:26:59.298Z,2.80
2022-11-28T03:32:08.058Z,2.85
2022-11-28T03:37:17.452Z,2.60
2022-11-28T03:42:24.789Z,3.00
2022-11-28T03:47:32.091Z,2.63
2022-11-28T03:52:41.882Z,3.10
2022-11-28T03:57:52.361Z,2.95
2022-11-28T04:03:03.498Z,3.17
2022-11-28T04:08:17.724Z,2.53
2022-11-28T04:13:25.156Z,2.47
2022-11-28T04:18:32.893Z,2.63
2022-11-28T04:23:41.392Z,2.58
2022-11-28T04:28:47.948Z,2.20
2022-11-28T04:33:57.690Z,2.65
2022-11-28T04:39:04.808Z,2.58
2022-11-28T04:49:15.147Z,2.60
2022-11-28T04:54:25.450Z,2.13
2022-11-28T04:59:31.914Z,2.45
2022-11-28T05:04:39.107Z,2.47
2022-11-28T05:14:47.648Z,2.33
2022-11-28T05:19:51.269Z,2.90
2022-11-28T05:24:56.366Z,2.90
2022-11-28T05:30:00.008Z,2.60
2022-11-28T05:35:04.417Z,2.83
2022-11-28T05:40:10.679Z,2.72
2022-11-28T05:45:14.318Z,2.73
2022-11-28T05:50:18.014Z,3.63
2022-11-28T05:55:23.148Z,3.55
2022-11-28T06:00:26.951Z,3.80
2022-11-28T06:05:42.307Z,4.40
2022-11-28T06:10:57.965Z,5.10
2022-11-28T06:16:01.685Z,5.32
2022-11-28T06:21:06.800Z,6.30
2022-11-28T06:26:13.413Z,6.72
2022-11-28T06:31:18.660Z,7.70
2022-11-28T06:36:23.455Z,9.00
2022-11-28T06:41:28.435Z,8.07
2022-11-28T06:46:32.044Z,9.05
2022-11-28T06:51:35.780Z,10.18
2022-11-28T06:56:41.109Z,9.23
2022-11-28T07:01:45.571Z,9.82
2022-11-28T07:06:49.398Z,9.45
2022-11-28T07:11:54.500Z,10.45
2022-11-28T07:16:58.319Z,11.30
2022-11-28T07:22:02.211Z,12.50
2022-11-28T07:27:07.358Z,11.85
2022-11-28T07:32:11.314Z,12.27
2022-11-28T07:37:16.099Z,12.75
2022-11-28T07:42:21.166Z,13.48
2022-11-28T07:47:39.699Z,14.30
2022-11-28T07:52:43.418Z,14.48
2022-11-28T07:57:48.474Z,15.45
2022-11-28T08:02:52.386Z,14.90
2022-11-28T08:07:56.131Z,15.38
2022-11-28T08:13:01.415Z,14.13
2022-11-28T08:18:05.277Z,14.65
2022-11-28T08:23:09.080Z,13.15
2022-11-28T08:28:14.225Z,12.95
2022-11-28T08:33:18.073Z,12.50
2022-11-28T08:38:21.816Z,12.10
2022-11-28T08:43:26.934Z,12.23
2022-11-28T08:48:30.992Z,11.48
2022-11-28T08:53:35.076Z,10.30
2022-11-28T08:58:40.567Z,11.70
2022-11-28T09:03:44.333Z,10.48
2022-11-28T09:08:48.745Z,10.02
2022-11-28T09:13:54.151Z,9.95
2022-11-28T09:18:59.416Z,11.38
2022-11-28T09:24:03.233Z,10.95
2022-11-28T09:29:08.362Z,10.55
2022-11-28T09:34:12.212Z,10.50
2022-11-28T09:39:16.928Z,11.77
2022-11-28T09:44:26.332Z,12.60
2022-11-28T09:49:40.670Z,13.63
2022-11-28T09:54:52.191Z,13.70
2022-11-28T09:59:57.219Z,12.95
2022-11-28T10:05:14.866Z,12.95
2022-11-28T10:10:24.692Z,12.73
2022-11-28T10:15:40.471Z,13.50
2022-11-28T10:20:48.009Z,13.05
2022-11-28T10:25:56.639Z,14.00
2022-11-28T10:31:08.231Z,13.82
2022-11-28T10:36:22.313Z,15.13
2022-11-28T10:41:33.261Z,16.10
2022-11-28T10:46:51.971Z,16.55
2022-11-28T10:52:04.511Z,16.92
2022-11-28T10:57:13.378Z,17.30
2022-11-28T11:02:27.833Z,18.20
2022-11-28T11:07:33.169Z,18.38
2022-11-28T11:12:36.937Z,19.45
2022-11-28T11:17:42.005Z,18.45
2022-11-28T11:22:55.725Z,20.23
2022-11-28T11:28:01.784Z,20.42
2022-11-28T11:33:14.136Z,20.15
2022-11-28T11:38:37.926Z,21.10
2022-11-28T11:43:41.950Z,23.38
2022-11-28T11:48:49.005Z,20.73
2022-11-28T11:54:04.331Z,21.17
2022-11-28T11:59:15.556Z,20.55
2022-11-28T12:04:44.681Z,20.98
2022-11-28T12:15:22.569Z,20.67
2022-11-28T12:20:47.513Z,21.50
2022-11-28T12:25:54.987Z,20.48
2022-11-28T12:31:10.600Z,22.95
2022-11-28T12:36:22.157Z,21.73
2022-11-28T12:41:46.496Z,20.85
2022-11-28T12:46:58.003Z,21.08
2022-11-28T12:52:23.367Z,21.48
2022-11-28T12:57:35.519Z,22.92
2022-11-28T13:02:50.650Z,21.65
2022-11-28T13:08:15.078Z,22.70
2022-11-28T13:13:24.047Z,24.55
2022-11-28T13:18:40.802Z,24.00
2022-11-28T13:23:52.414Z,23.40
2022-11-28T13:29:03.018Z,24.13
2022-11-28T13:34:12.650Z,23.50
2022-11-28T13:39:27.066Z,23.50
2022-11-28T13:44:37.528Z,23.17
2022-11-28T13:49:41.163Z,22.67
2022-11-28T13:54:52.597Z,23.25
2022-11-28T14:00:07.163Z,23.52
2022-11-28T14:05:38.680Z,22.15
2022-11-28T14:10:59.863Z,23.83
2022-11-28T14:16:17.851Z,22.73
2022-11-28T14:21:28.699Z,24.10
2022-11-28T14:26:36.323Z,23.67
2022-11-28T14:31:55.216Z,22.27
2022-11-28T14:37:38.033Z,21.40
2022-11-28T14:43:00.421Z,22.55
2022-11-28T14:48:30.049Z,20.52
2022-11-28T14:53:45.836Z,19.58
2022-11-28T14:58:53.701Z,21.05
2022-11-28T15:04:06.069Z,20.08
2022-11-28T15:09:18.667Z,19.48
2022-11-28T15:14:24.750Z,21.70
2022-11-28T15:19:31.912Z,21.45
2022-11-28T15:24:39.100Z,20.60
2022-11-28T15:29:53.573Z,21.33
2022-11-28T15:35:01.204Z,21.08
2022-11-28T15:40:07.175Z,21.60
2022-11-28T15:45:24.692Z,19.33
2022-11-28T15:50:34.795Z,20.70
2022-11-28T15:55:40.186Z,20.25
2022-11-28T16:00:49.746Z,20.20
2022-11-28T16:05:58.119Z,20.10
2022-11-28T16:11:04.312Z,18.57
2022-11-28T16:16:15.337Z,18.23
2022-11-28T16:21:19.240Z,17.00
2022-11-28T16:26:29.851Z,18.10
2022-11-28T16:31:36.023Z,17.88
2022-11-28T16:36:40.484Z,17.23
2022-11-28T16:41:51.952Z,14.43
2022-11-28T16:46:58.995Z,15.48
2022-11-28T16:52:45.603Z,15.20
2022-11-28T16:57:54.989Z,13.95
2022-11-28T17:03:00.081Z,13.43
2022-11-28T17:08:03.952Z,13.90
2022-11-28T17:13:08.492Z,13.40
2022-11-28T17:18:13.812Z,13.02
2022-11-28T17:23:24.737Z,12.70
2022-11-28T17:28:29.320Z,13.63
2022-11-28T17:33:34.972Z,12.60
2022-11-28T17:38:38.895Z,12.60
2022-11-28T17:43:43.036Z,13.02
2022-11-28T17:48:48.120Z,12.27
2022-11-28T17:53:53.982Z,12.25
2022-11-28T17:58:57.864Z,12.40
2022-11-28T18:04:04.604Z,13.82
2022-11-28T18:09:12.015Z,13.23
2022-11-28T18:14:19.622Z,13.18
2022-11-28T18:19:25.577Z,13.55
2022-11-28T18:24:29.771Z,13.98
2022-11-28T18:29:34.417Z,13.68
2022-11-28T18:34:39.562Z,15.00
2022-11-28T18:39:43.646Z,15.20
2022-11-28T18:44:47.818Z,16.27
2022-11-28T18:49:53.066Z,15.68
2022-11-28T18:54:56.760Z,15.77
2022-11-28T19:00:01.471Z,14.82
2022-11-28T19:05:08.150Z,16.88
2022-11-28T19:10:12.724Z,14.60
2022-11-28T19:15:16.747Z,15.45
2022-11-28T19:20:22.558Z,15.05
2022-11-28T19:25:27.677Z,16.35
2022-11-28T19:30:31.737Z,14.52
2022-11-28T19:35:36.870Z,14.48
2022-11-28T19:40:40.846Z,14.43
2022-11-28T19:45:44.706Z,14.30
2022-11-28T19:50:51.253Z,14.80
2022-11-28T19:55:55.777Z,14.48
2022-11-28T20:01:05.925Z,15.02
2022-11-28T20:06:12.819Z,14.93
2022-11-28T20:11:18.606Z,13.13
2022-11-28T20:16:22.618Z,14.10
2022-11-28T20:21:28.543Z,14.35
2022-11-28T20:26:34.923Z,16.42
2022-11-28T20:31:45.559Z,15.82
2022-11-28T20:36:54.289Z,15.73
2022-11-28T20:41:58.038Z,13.73
2022-11-28T20:47:01.994Z,14.02
2022-11-28T20:52:07.167Z,14.73
2022-11-28T20:57:21.340Z,15.38
2022-11-28T21:02:26.213Z,16.33
2022-11-28T21:07:31.743Z,14.98
2022-11-28T21:12:35.639Z,16.58
2022-11-28T21:17:39.457Z,15.52
2022-11-28T21:22:44.591Z,15.30
2022-11-28T21:27:48.890Z,16.15
2022-11-28T21:32:52.776Z,14.73
2022-11-28T21:37:58.694Z,15.60
2022-11-28T21:43:02.551Z,15.52
2022-11-28T21:48:06.653Z,16.63
2022-11-28T21:53:11.754Z,14.98
2022-11-28T21:58:15.447Z,15.07
2022-11-28T22:03:21.208Z,15.07
2022-11-28T22:08:26.854Z,15.68
2022-11-28T22:13:32.282Z,15.43
2022-11-28T22:18:36.047Z,15.65
2022-11-28T22:23:41.476Z,17.88
2022-11-28T22:28:49.111Z,17.63
2022-11-28T22:33:57.326Z,17.60
2022-11-28T22:39:02.969Z,17.00
2022-11-28T22:44:07.394Z,16.13
2022-11-28T22:49:11.475Z,15.88
2022-11-28T22:54:16.799Z,14.70
2022-11-28T22:59:20.819Z,16.25
2022-11-28T23:04:26.171Z,14.50
2022-11-28T23:09:31.295Z,14.02
2022-11-28T23:14:35.159Z,14.15
2022-11-28T23:19:40.147Z,14.55
2022-11-28T23:24:46.042Z,14.88
2022-11-28T23:29:49.999Z,14.27
2022-11-28T23:34:54.466Z,14.48
2022-11-28T23:39:59.507Z,14.57
2022-11-28T23:45:03.311Z,13.93
2022-11-28T23:50:08.491Z,13.77
2022-11-28T23:55:13.557Z,13.48
